Time;durP1;ratioP1;P1;durP2;ratioP2;P2;SDS_P1;SDS_P2;PMS_P1;PMS_P2;Temp;Humidity;BMP_temperature;BMP_pressure;BME280_temperature;BME280_humidity;BME280_pressure;Samples;Min_cycle;Max_cycle;Signal;HPM_P1;HPM_P2
2023/05/03 00:00:17;;;;;;;0.03;0.00;;;;;;;14.51;76.94;100949.41;5072017;28;20040;-76
2023/05/03 00:02:43;;;;;;;0.75;0.00;;;;;;;14.44;79.33;100948.38;5057955;28;20032;-76
2023/05/03 00:05:13;;;;;;;0.03;0.00;;;;;;;14.38;79.35;100947.19;5057785;28;20028;-75
2023/05/03 00:07:42;;;;;;;0.10;0.00;;;;;;;14.42;76.74;100942.47;5049466;28;20024;-76
2023/05/03 00:10:12;;;;;;;0.00;0.00;;;;;;;14.47;75.85;100941.03;5076710;28;20170;-77
2023/05/03 00:12:42;;;;;;;1.77;0.05;;;;;;;14.61;74.79;100942.25;5056969;28;20024;-76
2023/05/03 00:15:09;;;;;;;0.10;0.00;;;;;;;14.73;73.04;100933.06;5070350;28;20445;-77
2023/05/03 00:17:35;;;;;;;0.35;0.00;;;;;;;14.83;72.97;100943.44;5069436;28;20028;-76
2023/05/03 00:20:03;;;;;;;0.00;0.00;;;;;;;14.77;73.59;100930.94;5055225;28;20036;-76
2023/05/03 00:22:29;;;;;;;0.05;0.00;;;;;;;14.73;73.97;100933.06;5077054;28;20040;-76
2023/05/03 00:24:55;;;;;;;0.52;0.00;;;;;;;14.77;72.08;100937.03;5081459;28;20024;-76
2023/05/03 00:27:21;;;;;;;0.10;0.00;;;;;;;14.84;72.20;100938.03;5072190;28;20028;-75
2023/05/03 00:29:50;;;;;;;0.00;0.00;;;;;;;14.99;69.79;100929.53;5056624;28;20112;-76
2023/05/03 00:32:15;;;;;;;0.43;0.00;;;;;;;15.01;69.51;100930.19;5071066;28;20052;-76
2023/05/03 00:34:41;;;;;;;0.25;0.00;;;;;;;15.11;67.19;100920.38;5066904;28;20099;-76
2023/05/03 00:37:07;;;;;;;0.00;0.00;;;;;;;15.18;68.39;100921.31;5072373;28;20056;-75
2023/05/03 00:39:33;;;;;;;0.00;0.00;;;;;;;15.15;68.77;100921.66;5067921;28;20407;-76
2023/05/03 00:42:00;;;;;;;2.15;0.20;;;;;;;15.19;67.06;100922.97;5055607;28;20115;-77
2023/05/03 00:44:25;;;;;;;0.00;0.00;;;;;;;15.22;67.07;100917.41;5075198;28;20083;-75
2023/05/03 00:46:51;;;;;;;1.02;0.00;;;;;;;15.22;67.13;100917.41;5073292;28;20116;-76
2023/05/03 00:49:17;;;;;;;0.00;0.00;;;;;;;15.17;68.34;100914.44;5056321;28;20362;-76
2023/05/03 00:51:43;;;;;;;0.40;0.00;;;;;;;15.14;66.80;100912.97;5075635;28;20021;-76
2023/05/03 00:54:10;;;;;;;0.00;0.00;;;;;;;15.19;65.75;100904.59;5068947;28;20086;-76
2023/05/03 00:56:37;;;;;;;0.10;0.00;;;;;;;15.18;67.37;100910.81;5052280;28;20431;-76
2023/05/03 00:59:04;;;;;;;0.00;0.00;;;;;;;15.06;68.62;100912.16;5090344;28;20040;-76
2023/05/03 01:01:31;;;;;;;0.65;0.00;;;;;;;14.98;68.68;100906.91;5076196;28;20115;-76
2023/05/03 01:03:59;;;;;;;0.00;0.00;;;;;;;14.94;68.18;100909.84;5071948;28;20021;-76
2023/05/03 01:06:26;;;;;;;0.00;0.00;;;;;;;14.96;68.85;100911.47;5054724;28;20032;-76
2023/05/03 01:09:02;;;;;;;0.13;0.00;;;;;;;14.86;67.87;100901.97;5075195;28;20037;-76
2023/05/03 01:11:52;;;;;;;1.10;0.00;;;;;;;14.84;67.71;100903.09;5075605;28;25681;-76
2023/05/03 01:14:36;;;;;;;0.00;0.00;;;;;;;14.80;70.65;100899.97;5070048;28;20131;-75
2023/05/03 01:17:11;;;;;;;0.00;0.00;;;;;;;14.77;69.80;100902.91;5072168;28;20472;-76
2023/05/03 01:19:43;;;;;;;1.55;0.00;;;;;;;14.78;68.87;100899.31;5077544;28;20036;-76
2023/05/03 01:22:30;;;;;;;0.00;0.00;;;;;;;14.87;68.33;100894.91;5050455;28;20048;-76
2023/05/03 01:25:10;;;;;;;0.00;0.00;;;;;;;14.86;67.36;100899.34;5073906;28;20090;-76
2023/05/03 01:27:37;;;;;;;0.00;0.00;;;;;;;14.98;68.16;100891.16;5072507;28;20052;-76
2023/05/03 01:30:07;;;;;;;3.90;0.00;;;;;;;15.06;66.87;100885.91;5079088;28;20488;-77
2023/05/03 01:32:48;;;;;;;0.40;0.00;;;;;;;15.17;61.90;100881.13;5075198;28;20032;-75
2023/05/03 01:35:27;;;;;;;0.00;0.00;;;;;;;15.34;62.36;100896.88;5066811;28;20028;-76
2023/05/03 01:37:56;;;;;;;0.00;0.00;;;;;;;15.30;65.34;100887.69;5071277;28;20068;-76
2023/05/03 01:40:23;;;;;;;0.00;0.00;;;;;;;15.18;66.29;100885.41;5074622;28;20032;-76
2023/05/03 01:42:50;;;;;;;0.10;0.00;;;;;;;15.06;67.04;100883.28;5076025;28;20441;-75
2023/05/03 01:45:17;;;;;;;0.00;0.00;;;;;;;14.94;69.13;100886.22;5057730;28;20037;-75
2023/05/03 01:47:42;;;;;;;0.20;0.00;;;;;;;14.82;69.67;100891.94;5073263;28;20032;-75
2023/05/03 01:50:08;;;;;;;2.50;0.08;;;;;;;14.70;71.82;100880.94;5078668;28;20549;-75
2023/05/03 01:52:33;;;;;;;0.00;0.00;;;;;;;14.51;74.35;100891.72;5069608;28;20024;-75
2023/05/03 01:54:59;;;;;;;0.00;0.00;;;;;;;14.36;77.79;100886.22;5057233;28;20044;-76
2023/05/03 01:57:24;;;;;;;0.10;0.00;;;;;;;14.12;80.29;100881.72;5073258;28;20047;-76
2023/05/03 01:59:50;;;;;;;0.28;0.00;;;;;;;14.00;83.08;100890.03;5082463;28;20081;-75
2023/05/03 02:02:16;;;;;;;0.20;0.00;;;;;;;13.88;83.66;100889.47;5073431;28;20086;-76
2023/05/03 02:04:41;;;;;;;0.10;0.00;;;;;;;13.86;84.38;100894.84;5079725;28;20028;-76
2023/05/03 02:07:07;;;;;;;1.38;0.00;;;;;;;13.84;86.04;100883.72;5061788;28;20553;-76
2023/05/03 02:09:32;;;;;;;3.97;0.00;;;;;;;13.76;87.61;100893.31;5059829;28;20804;-76
2023/05/03 02:11:58;;;;;;;1.00;0.00;;;;;;;13.70;88.79;100899.19;5079691;28;20068;-75
2023/05/03 02:14:23;;;;;;;0.00;0.00;;;;;;;13.64;89.53;100891.94;5079160;28;20496;-76
2023/05/03 02:16:49;;;;;;;0.82;0.00;;;;;;;13.58;90.89;100894.22;5064243;28;20552;-76
2023/05/03 02:19:14;;;;;;;0.00;0.00;;;;;;;13.49;91.13;100889.88;5073740;28;20029;-76
2023/05/03 02:21:40;;;;;;;0.10;0.00;;;;;;;13.48;92.18;100885.63;5073880;28;20043;-77
2023/05/03 02:24:06;;;;;;;0.10;0.00;;;;;;;13.46;93.64;100894.59;5074977;28;20061;-75
2023/05/03 02:26:31;;;;;;;2.38;0.00;;;;;;;13.36;94.45;100892.06;5066257;28;20071;-75
2023/05/03 02:28:57;;;;;;;0.10;0.00;;;;;;;13.33;95.66;100889.75;5074413;28;20423;-75
2023/05/03 02:31:23;;;;;;;0.10;0.00;;;;;;;13.28;96.42;100882.34;5080622;28;20040;-75
2023/05/03 02:33:48;;;;;;;3.20;0.00;;;;;;;13.20;97.59;100895.41;5079076;28;20081;-75
2023/05/03 02:36:14;;;;;;;2.53;0.28;;;;;;;13.16;97.19;100894.06;5075576;28;20032;-76
2023/05/03 02:38:39;;;;;;;0.50;0.00;;;;;;;13.17;98.37;100879.19;5074651;28;20162;-76
2023/05/03 02:41:05;;;;;;;0.20;0.00;;;;;;;13.48;89.69;100883.00;5073177;28;20048;-75
2023/05/03 02:43:30;;;;;;;0.38;0.00;;;;;;;13.84;87.31;100885.50;5068353;28;20029;-75
2023/05/03 02:45:56;;;;;;;1.70;0.00;;;;;;;13.80;89.03;100882.38;5054380;28;20040;-75
2023/05/03 02:48:21;;;;;;;2.10;0.00;;;;;;;13.62;91.66;100881.63;5065227;28;20036;-76
2023/05/03 02:50:47;;;;;;;0.28;0.00;;;;;;;13.51;94.05;100882.69;5076220;28;20054;-76
2023/05/03 02:53:12;;;;;;;0.20;0.00;;;;;;;13.32;96.44;100882.06;5076971;28;20037;-76
2023/05/03 02:55:38;;;;;;;0.90;0.05;;;;;;;13.23;97.58;100886.44;5065081;28;20032;-75
2023/05/03 02:58:04;;;;;;;0.20;0.00;;;;;;;13.18;98.44;100878.22;5073450;28;20056;-76
2023/05/03 03:00:29;;;;;;;0.10;0.00;;;;;;;13.15;98.55;100873.25;5068653;28;20048;-75
2023/05/03 03:02:55;;;;;;;0.52;0.10;;;;;;;13.16;98.24;100869.69;5073298;28;20122;-76
2023/05/03 03:05:20;;;;;;;0.47;0.00;;;;;;;13.17;98.68;100868.72;5067788;28;20110;-75
2023/05/03 03:07:45;;;;;;;0.25;0.00;;;;;;;13.19;97.92;100879.84;5074544;28;20379;-76
2023/05/03 03:10:11;;;;;;;0.90;0.10;;;;;;;13.71;89.70;100875.44;5071507;28;20111;-75
2023/05/03 03:12:37;;;;;;;0.68;0.00;;;;;;;13.73;89.95;100880.53;5059850;28;20056;-75
2023/05/03 03:15:03;;;;;;;0.08;0.00;;;;;;;13.67;92.16;100881.16;5049427;28;20045;-76
2023/05/03 03:17:29;;;;;;;0.10;0.00;;;;;;;13.56;93.29;100888.31;5071508;28;20039;-75
2023/05/03 03:19:54;;;;;;;5.55;0.10;;;;;;;13.63;90.20;100890.31;5052080;28;20085;-76
2023/05/03 03:22:20;;;;;;;0.75;0.00;;;;;;;13.74;90.14;100882.16;5078042;28;20036;-76
2023/05/03 03:24:45;;;;;;;0.10;0.00;;;;;;;14.13;83.75;100883.38;5074394;28;20045;-76
2023/05/03 03:27:11;;;;;;;0.28;0.00;;;;;;;14.25;82.28;100881.28;5078256;28;20044;-76
2023/05/03 03:29:36;;;;;;;0.55;0.00;;;;;;;14.15;83.38;100884.03;5078652;28;20042;-76
2023/05/03 03:32:02;;;;;;;0.10;0.00;;;;;;;13.97;85.38;100887.72;5077196;28;20072;-75
2023/05/03 03:34:27;;;;;;;0.20;0.00;;;;;;;13.84;87.76;100882.88;5082449;28;20720;-76
2023/05/03 03:36:53;;;;;;;0.80;0.05;;;;;;;13.70;90.42;100880.88;5076482;28;20033;-75
2023/05/03 03:39:18;;;;;;;0.43;0.00;;;;;;;13.60;90.92;100892.25;5079963;28;20055;-76
2023/05/03 03:41:44;;;;;;;0.82;0.00;;;;;;;13.57;91.70;100891.75;5076232;28;20048;-75
2023/05/03 03:44:10;;;;;;;0.10;0.00;;;;;;;13.51;91.42;100887.13;5054329;28;20500;-75
2023/05/03 03:46:35;;;;;;;1.63;0.00;;;;;;;13.55;90.27;100878.81;5064046;28;20068;-76
2023/05/03 03:49:01;;;;;;;0.43;0.20;;;;;;;13.53;91.01;100891.22;5070451;28;20136;-75
2023/05/03 03:51:26;;;;;;;1.30;0.00;;;;;;;13.49;91.60;100892.50;5067079;28;20028;-75
2023/05/03 03:53:52;;;;;;;0.38;0.10;;;;;;;13.48;91.70;100883.00;5065016;28;20043;-74
2023/05/03 03:56:17;;;;;;;2.53;1.35;;;;;;;13.51;91.43;100892.34;5072339;28;20498;-75
2023/05/03 03:58:43;;;;;;;0.32;0.10;;;;;;;13.70;86.19;100901.81;5056531;28;20097;-76
2023/05/03 04:01:08;;;;;;;0.20;0.10;;;;;;;14.10;79.42;100909.06;5072379;28;20027;-76
2023/05/03 04:03:34;;;;;;;0.20;0.00;;;;;;;14.65;75.81;100888.47;5078475;28;20024;-76
2023/05/03 04:05:59;;;;;;;0.00;0.00;;;;;;;14.76;73.28;100896.03;5071369;28;20077;-76
2023/05/03 04:08:25;;;;;;;0.00;0.00;;;;;;;14.74;73.07;100898.00;5077973;28;20400;-77
2023/05/03 04:10:50;;;;;;;0.00;0.00;;;;;;;14.85;72.05;100894.25;5081017;28;20437;-76
2023/05/03 04:13:16;;;;;;;0.40;0.00;;;;;;;15.02;69.73;100884.59;5079115;28;20088;-76
2023/05/03 04:15:41;;;;;;;0.43;0.00;;;;;;;15.01;70.74;100890.81;5082000;28;20037;-76
2023/05/03 04:18:07;;;;;;;0.20;0.00;;;;;;;14.87;71.56;100887.03;5086772;28;20040;-77
2023/05/03 04:20:33;;;;;;;0.10;0.00;;;;;;;14.80;72.06;100896.53;5070712;28;20021;-71
2023/05/03 04:22:59;;;;;;;0.05;0.00;;;;;;;14.89;70.47;100892.94;5072039;28;20087;-71
2023/05/03 04:25:24;;;;;;;0.00;0.00;;;;;;;14.86;71.38;100895.88;5069157;28;20077;-70
2023/05/03 04:27:50;;;;;;;0.03;0.00;;;;;;;14.97;69.66;100895.59;5067218;28;20021;-71
2023/05/03 04:30:16;;;;;;;0.10;0.00;;;;;;;15.11;68.79;100904.63;5075484;28;20023;-71
2023/05/03 04:32:41;;;;;;;0.00;0.00;;;;;;;15.08;68.42;100910.19;5067163;28;20729;-71
2023/05/03 04:35:09;;;;;;;0.30;0.00;;;;;;;15.01;69.93;100896.06;5070293;28;20436;-71
2023/05/03 04:37:39;;;;;;;0.00;0.00;;;;;;;14.87;71.40;100908.03;5063347;28;20105;-71
2023/05/03 04:40:11;;;;;;;0.00;0.00;;;;;;;14.74;74.42;100918.97;5070009;28;20373;-70
2023/05/03 04:42:37;;;;;;;1.17;0.10;;;;;;;14.56;76.92;100910.44;5067961;28;20079;-70
2023/05/03 04:45:05;;;;;;;0.20;0.03;;;;;;;14.42;77.71;100914.47;5068573;28;20037;-71
2023/05/03 04:47:31;;;;;;;0.73;0.00;;;;;;;14.43;77.30;100917.91;5068881;28;20111;-71
2023/05/03 04:49:57;;;;;;;1.00;0.20;;;;;;;14.42;77.91;100911.03;5067780;28;20036;-72
2023/05/03 04:52:23;;;;;;;0.98;0.20;;;;;;;14.39;79.09;100906.06;5065771;28;20032;-70
2023/05/03 04:54:48;;;;;;;0.30;0.08;;;;;;;14.37;78.64;100910.66;5066889;28;20123;-71
2023/05/03 04:57:14;;;;;;;0.68;0.10;;;;;;;14.41;77.36;100909.34;5067647;28;20037;-71
2023/05/03 04:59:41;;;;;;;0.40;0.10;;;;;;;14.71;73.36;100915.84;5057826;28;20044;-71
2023/05/03 05:02:06;;;;;;;2.35;0.10;;;;;;;14.71;75.63;100919.28;5071032;28;20039;-72
2023/05/03 05:04:32;;;;;;;0.10;0.00;;;;;;;14.62;74.36;100912.41;5072875;28;20047;-70
2023/05/03 05:06:58;;;;;;;1.52;0.00;;;;;;;14.99;70.08;100916.41;5075235;28;20368;-70
2023/05/03 05:09:29;;;;;;;0.75;0.00;;;;;;;15.06;70.59;100912.97;5076537;28;20067;-71
2023/05/03 05:11:56;;;;;;;2.45;0.00;;;;;;;15.17;68.26;100917.88;5073275;28;20462;-72
2023/05/03 05:14:21;;;;;;;0.00;0.00;;;;;;;15.21;68.43;100921.00;5073347;28;20036;-71
2023/05/03 05:16:47;;;;;;;0.10;0.00;;;;;;;15.16;68.41;100923.28;5073430;28;20071;-71
2023/05/03 05:19:12;;;;;;;0.10;0.08;;;;;;;15.09;70.22;100922.34;5074379;28;20048;-71
2023/05/03 05:21:38;;;;;;;0.38;0.10;;;;;;;15.03;68.23;100928.22;5069719;28;20040;-71
2023/05/03 05:24:04;;;;;;;0.20;0.10;;;;;;;15.11;67.01;100936.09;5073624;28;20074;-72
2023/05/03 05:26:30;;;;;;;0.20;0.00;;;;;;;15.37;65.34;100931.50;5073264;28;20024;-71
2023/05/03 05:28:55;;;;;;;0.10;0.00;;;;;;;15.47;65.21;100932.19;5074821;28;20035;-71
2023/05/03 05:31:21;;;;;;;0.03;0.00;;;;;;;15.43;64.91;100941.38;5058141;28;20036;-72
2023/05/03 05:33:46;;;;;;;0.52;0.00;;;;;;;15.46;65.12;100930.53;5067836;28;20032;-71
2023/05/03 05:36:13;;;;;;;0.10;0.00;;;;;;;15.43;65.09;100944.00;5075649;28;20480;-71
2023/05/03 05:38:39;;;;;;;0.08;0.00;;;;;;;15.32;67.57;100941.69;5080784;28;20037;-72
2023/05/03 05:41:05;;;;;;;0.00;0.00;;;;;;;15.41;63.63;100953.00;5069645;28;20035;-70
2023/05/03 05:43:30;;;;;;;0.55;0.10;;;;;;;15.56;64.24;100946.13;5078758;28;20032;-70
2023/05/03 05:45:56;;;;;;;3.78;0.00;;;;;;;15.52;64.87;100936.94;5075095;28;20028;-72
2023/05/03 05:48:21;;;;;;;1.38;0.00;;;;;;;15.47;65.28;100940.06;5072734;28;20031;-72
2023/05/03 05:50:48;;;;;;;1.38;0.30;;;;;;;15.44;65.07;100943.00;5068673;28;20052;-72
2023/05/03 05:53:13;;;;;;;0.25;0.00;;;;;;;15.47;65.46;100942.69;5072169;28;20480;-71
2023/05/03 05:55:39;;;;;;;0.10;0.00;;;;;;;15.50;64.91;100947.59;5077444;28;20076;-73
2023/05/03 05:58:04;;;;;;;0.25;0.10;;;;;;;15.57;64.09;100948.63;5072871;28;20053;-71
2023/05/03 06:00:30;;;;;;;1.40;0.00;;;;;;;15.58;65.15;100949.44;5065587;28;20028;-72
2023/05/03 06:02:55;;;;;;;0.63;0.10;;;;;;;15.53;66.54;100952.53;5067673;28;20086;-72
2023/05/03 06:05:21;;;;;;;0.75;0.15;;;;;;;15.55;64.54;100957.63;5069362;28;20050;-72
2023/05/03 06:07:47;;;;;;;1.70;0.05;;;;;;;15.66;64.14;100956.47;5057952;28;20035;-71
2023/05/03 06:10:13;;;;;;;0.10;0.00;;;;;;;15.73;63.81;100963.53;5073734;28;20430;-70
2023/05/03 06:12:38;;;;;;;0.00;0.00;;;;;;;15.95;59.88;100969.91;5073363;28;20044;-73
2023/05/03 06:15:04;;;;;;;1.25;0.00;;;;;;;16.10;59.47;100965.59;5072790;28;20121;-71
2023/05/03 06:17:30;;;;;;;0.10;0.00;;;;;;;16.09;60.50;100966.56;5070059;28;20039;-72
2023/05/03 06:19:56;;;;;;;0.20;0.00;;;;;;;16.10;61.03;100970.84;5077156;28;20028;-70
2023/05/03 06:22:22;;;;;;;2.25;0.00;;;;;;;16.11;60.66;100967.22;5056632;28;20031;-71
2023/05/03 06:24:47;;;;;;;0.30;0.10;;;;;;;16.15;61.04;100971.16;5070047;28;20032;-71
2023/05/03 06:27:12;;;;;;;0.20;0.00;;;;;;;16.13;61.69;100970.50;5059109;28;20029;-72
2023/05/03 06:29:38;;;;;;;0.25;0.00;;;;;;;16.12;61.75;100984.63;5071763;28;20041;-71
2023/05/03 06:32:04;;;;;;;0.40;0.10;;;;;;;16.09;62.41;100976.25;5072608;28;20044;-71
2023/05/03 06:34:29;;;;;;;0.15;0.00;;;;;;;16.08;63.68;100975.44;5074763;28;20066;-72
2023/05/03 06:36:54;;;;;;;1.95;0.00;;;;;;;16.08;63.22;100978.06;5069241;28;20139;-70
2023/05/03 06:39:20;;;;;;;0.20;0.10;;;;;;;16.07;63.91;100986.16;5064408;28;20393;-71
2023/05/03 06:41:45;;;;;;;0.15;0.00;;;;;;;16.12;62.49;100983.81;5063086;28;20025;-71
2023/05/03 06:44:11;;;;;;;0.77;0.00;;;;;;;16.16;62.55;101003.53;5075565;28;20039;-70
2023/05/03 06:46:36;;;;;;;0.17;0.03;;;;;;;16.24;61.74;100993.81;5066059;28;20673;-72
2023/05/03 06:49:02;;;;;;;0.40;0.00;;;;;;;16.31;61.42;100985.25;5068156;28;20055;-72
2023/05/03 06:51:29;;;;;;;0.20;0.10;;;;;;;16.29;63.68;100989.88;5053497;28;20040;-72
2023/05/03 06:53:55;;;;;;;1.38;0.10;;;;;;;16.29;63.88;100997.75;5070610;28;20472;-71
2023/05/03 06:56:22;;;;;;;0.88;0.00;;;;;;;16.25;63.66;100995.47;5068530;28;20036;-72
2023/05/03 06:58:47;;;;;;;0.43;0.10;;;;;;;16.31;65.99;101004.47;5077020;28;20028;-72
2023/05/03 07:01:13;;;;;;;0.10;0.00;;;;;;;16.30;66.46;101002.03;5052777;28;20033;-72
2023/05/03 07:03:38;;;;;;;0.57;0.00;;;;;;;16.24;65.86;101001.69;5053751;28;20134;-72
2023/05/03 07:06:04;;;;;;;0.10;0.00;;;;;;;16.29;63.74;101005.63;5071982;28;20033;-72
2023/05/03 07:08:30;;;;;;;0.10;0.00;;;;;;;16.33;63.74;100999.88;5070341;28;20055;-71
2023/05/03 07:10:56;;;;;;;0.30;0.10;;;;;;;16.33;63.74;101001.69;5071658;28;20025;-72
2023/05/03 07:13:21;;;;;;;0.15;0.00;;;;;;;16.31;64.16;101003.66;5056762;28;20043;-71
2023/05/03 07:15:47;;;;;;;0.45;0.05;;;;;;;16.31;66.29;101001.03;5064616;28;20052;-72
2023/05/03 07:18:12;;;;;;;1.65;0.10;;;;;;;16.26;68.18;100997.09;5047508;28;20025;-70
2023/05/03 07:20:38;;;;;;;0.98;0.00;;;;;;;16.20;69.01;101003.03;5067166;28;20105;-72
2023/05/03 07:23:05;;;;;;;0.65;0.10;;;;;;;16.21;68.92;101009.09;5069104;28;20048;-71
2023/05/03 07:25:31;;;;;;;0.52;0.10;;;;;;;16.15;67.58;101013.22;5066355;28;20032;-70
2023/05/03 07:27:57;;;;;;;0.22;0.00;;;;;;;16.15;66.51;101010.59;5075773;28;20024;-72
2023/05/03 07:30:23;;;;;;;0.00;0.00;;;;;;;16.18;64.49;101006.81;5072957;28;20479;-71
2023/05/03 07:32:49;;;;;;;0.93;0.00;;;;;;;16.17;64.55;101013.88;5061613;28;20058;-71
2023/05/03 07:35:15;;;;;;;0.32;0.10;;;;;;;16.19;64.51;101014.53;5069963;28;20203;-71
2023/05/03 07:37:42;;;;;;;1.45;0.10;;;;;;;16.15;66.24;101020.28;5079717;28;20033;-71
2023/05/03 07:40:11;;;;;;;0.20;0.03;;;;;;;16.16;64.18;101014.03;5072948;28;20036;-72
2023/05/03 07:42:36;;;;;;;0.30;0.00;;;;;;;16.18;65.24;101007.63;5051364;28;20033;-70
2023/05/03 07:45:02;;;;;;;0.73;0.08;;;;;;;16.15;64.92;101015.84;5062640;28;20400;-69
2023/05/03 07:47:28;;;;;;;0.25;0.00;;;;;;;16.23;63.84;101023.72;5071814;28;20419;-68
2023/05/03 07:49:53;;;;;;;0.10;0.00;;;;;;;16.27;62.59;101025.03;5069975;28;20029;-69
2023/05/03 07:52:19;;;;;;;0.25;0.00;;;;;;;16.32;62.17;101010.56;5049958;28;20040;-68
2023/05/03 07:54:44;;;;;;;0.00;0.00;;;;;;;16.35;62.07;101020.75;5070675;28;20028;-68
2023/05/03 07:57:12;;;;;;;0.00;0.00;;;;;;;16.41;60.68;101025.34;5078559;28;20031;-68
2023/05/03 07:59:39;;;;;;;0.75;0.00;;;;;;;16.43;61.34;101018.09;5065057;28;20029;-69
2023/05/03 08:02:04;;;;;;;0.10;0.00;;;;;;;16.38;61.05;101017.78;5066641;28;20035;-68
2023/05/03 08:04:31;;;;;;;0.10;0.00;;;;;;;16.33;61.78;101028.81;5064853;28;20039;-69
2023/05/03 08:07:01;;;;;;;0.15;0.00;;;;;;;16.37;60.27;101024.84;5065381;28;20082;-69
2023/05/03 08:09:28;;;;;;;0.47;0.00;;;;;;;16.36;62.23;101022.38;5068477;28;20473;-68
2023/05/03 08:11:55;;;;;;;0.10;0.00;;;;;;;16.42;61.93;101034.88;5059559;28;20028;-69
2023/05/03 08:14:24;;;;;;;0.32;0.00;;;;;;;16.35;62.65;101036.53;5064693;28;20516;-69
2023/05/03 08:16:50;;;;;;;0.32;0.00;;;;;;;16.34;64.25;101037.50;5061426;28;20064;-68
2023/05/03 08:19:15;;;;;;;0.38;0.10;;;;;;;16.36;64.26;101027.66;5066743;28;20629;-69
2023/05/03 08:21:42;;;;;;;1.60;0.10;;;;;;;16.25;65.45;101037.53;5074691;28;20029;-68
2023/05/03 08:24:09;;;;;;;0.43;0.10;;;;;;;16.35;63.97;101039.16;5057198;28;20178;-69
2023/05/03 08:26:35;;;;;;;0.20;0.08;;;;;;;16.48;62.60;101047.34;5064525;28;20098;-70
2023/05/03 08:29:02;;;;;;;1.65;0.00;;;;;;;16.49;62.91;101048.97;5069753;28;20029;-70
2023/05/03 08:31:29;;;;;;;0.17;0.03;;;;;;;16.48;63.56;101047.34;5070717;28;20028;-69
2023/05/03 08:33:55;;;;;;;1.58;0.10;;;;;;;16.49;62.54;101054.25;5067518;28;20117;-69
2023/05/03 08:36:20;;;;;;;0.45;0.10;;;;;;;16.54;63.82;101052.72;5073723;28;20498;-70
2023/05/03 08:38:46;;;;;;;1.40;0.00;;;;;;;16.58;62.28;101055.84;5068412;28;20028;-69
2023/05/03 08:41:30;;;;;;;1.45;0.00;;;;;;;16.57;62.59;101051.56;5072331;28;20031;-69
2023/05/03 08:43:57;;;;;;;0.10;0.00;;;;;;;16.51;63.75;101060.16;5072796;28;20376;-70
2023/05/03 08:46:24;;;;;;;0.73;0.10;;;;;;;16.57;63.48;101054.19;5070462;28;20040;-70
2023/05/03 08:48:52;;;;;;;2.03;0.10;;;;;;;16.51;64.53;101058.34;5066291;28;20051;-69
2023/05/03 08:51:18;;;;;;;0.98;0.10;;;;;;;16.52;64.65;101059.16;5072279;28;20033;-69
2023/05/03 08:53:45;;;;;;;1.65;0.10;;;;;;;16.54;66.93;101062.44;5065784;28;21332;-69
2023/05/03 08:56:26;;;;;;;0.20;0.00;;;;;;;16.62;62.31;101059.78;5069484;28;20051;-69
2023/05/03 08:58:53;;;;;;;0.30;0.03;;;;;;;16.59;63.94;101066.19;5072228;28;20047;-69
2023/05/03 09:01:19;;;;;;;2.60;0.08;;;;;;;16.56;63.86;101063.91;5070813;28;20052;-69
2023/05/03 09:03:50;;;;;;;0.30;0.10;;;;;;;16.61;61.27;101060.75;5084707;28;20099;-70
2023/05/03 09:06:26;;;;;;;0.17;0.00;;;;;;;16.66;61.75;101066.38;5068838;28;20032;-71
2023/05/03 09:08:53;;;;;;;0.10;0.08;;;;;;;16.59;62.84;101074.09;5067690;28;20025;-70
2023/05/03 09:11:29;;;;;;;0.47;0.10;;;;;;;16.61;61.27;101076.53;5062717;28;20433;-69
2023/05/03 09:14:15;;;;;;;0.93;0.10;;;;;;;16.58;60.73;101067.19;5070987;28;20048;-69
2023/05/03 09:16:43;;;;;;;;;;;;;;;16.63;57.93;101076.38;5068665;28;20028;-71
2023/05/03 09:19:11;;;;;;;0.63;0.10;;;;;;;16.67;62.67;101080.34;5072921;28;20211;-70
2023/05/03 09:21:37;;;;;;;0.20;0.03;;;;;;;16.66;61.99;101074.25;5063839;28;20029;-70
2023/05/03 09:24:19;;;;;;;0.80;0.03;;;;;;;16.68;58.68;101082.00;5060943;28;20113;-71
2023/05/03 09:26:47;;;;;;;0.25;0.05;;;;;;;16.70;61.04;101078.19;5069927;28;20095;-70
2023/05/03 09:29:33;;;;;;;0.68;0.10;;;;;;;16.66;59.88;101082.16;5068803;28;20043;-69
2023/05/03 09:32:04;;;;;;;2.25;0.08;;;;;;;16.70;60.52;101080.81;5072335;28;20040;-77
2023/05/03 09:34:34;;;;;;;1.85;0.03;;;;;;;16.72;60.34;101075.41;5064834;28;20491;-76
2023/05/03 09:37:01;;;;;;;0.20;0.10;;;;;;;16.68;60.58;101085.44;5075430;28;20025;-78
2023/05/03 09:39:26;;;;;;;0.28;0.10;;;;;;;16.71;61.09;101085.09;5045372;28;20098;-76
2023/05/03 09:41:53;;;;;;;0.52;0.10;;;;;;;16.75;61.29;101077.69;5039040;28;20032;-76
2023/05/03 09:44:19;;;;;;;3.75;0.15;;;;;;;16.72;61.63;101072.78;5070597;28;20043;-76
2023/05/03 09:47:04;;;;;;;1.20;0.10;;;;;;;16.60;60.19;101072.28;5079679;28;20040;-76
2023/05/03 09:49:32;;;;;;;0.15;0.00;;;;;;;16.59;63.10;101071.44;5090362;28;20415;-76
2023/05/03 09:52:00;;;;;;;0.20;0.00;;;;;;;16.57;64.02;101075.25;5076390;28;20727;-77
2023/05/03 09:54:27;;;;;;;2.30;0.10;;;;;;;16.59;63.44;101068.81;5061039;28;20054;-78
2023/05/03 09:56:54;;;;;;;0.13;0.10;;;;;;;16.59;63.95;101081.16;5064933;28;20502;-76
2023/05/03 09:59:20;;;;;;;0.15;0.10;;;;;;;16.63;62.47;101071.13;5053208;28;20041;-75
2023/05/03 10:01:47;;;;;;;0.30;0.00;;;;;;;16.67;62.59;101082.97;5068844;28;20392;-77
2023/05/03 10:04:18;;;;;;;1.85;0.10;;;;;;;16.73;62.16;101085.75;5064351;28;20532;-76
2023/05/03 10:06:48;;;;;;;0.35;0.10;;;;;;;16.74;61.59;101076.06;5062999;28;20032;-75
2023/05/03 10:09:42;;;;;;;0.30;0.10;;;;;;;16.73;57.96;101077.88;5069470;28;20039;-75
2023/05/03 10:12:10;;;;;;;0.20;0.10;;;;;;;16.71;61.73;101074.59;5062259;28;20044;-76
2023/05/03 10:14:36;;;;;;;2.35;0.10;;;;;;;16.68;63.11;101080.19;5076268;28;20048;-76
2023/05/03 10:17:07;;;;;;;0.10;0.00;;;;;;;16.58;64.37;101074.25;5074255;28;20078;-76
2023/05/03 10:19:34;;;;;;;0.20;0.10;;;;;;;16.59;64.72;101081.97;5087600;28;20029;-76
2023/05/03 10:22:08;;;;;;;0.20;0.10;;;;;;;16.66;62.14;101082.16;5077643;28;20033;-77
2023/05/03 10:25:00;;;;;;;0.20;0.10;;;;;;;16.63;63.54;101079.84;5079756;28;20017;-76
2023/05/03 10:27:45;;;;;;;3.42;0.20;;;;;;;16.63;63.13;101071.94;5062536;28;20035;-76
2023/05/03 10:30:35;;;;;;;4.13;0.10;;;;;;;16.73;60.57;101077.88;5044725;28;20032;-76
2023/05/03 10:33:10;;;;;;;3.00;0.10;;;;;;;16.86;60.56;101078.16;5056820;28;20047;-76
2023/05/03 10:35:39;;;;;;;0.10;0.00;;;;;;;16.90;61.76;101074.19;5049876;28;20036;-75
2023/05/03 10:38:21;;;;;;;7.03;0.20;;;;;;;16.96;59.52;101085.03;5075704;28;20302;-76
2023/05/03 10:40:47;;;;;;;2.55;0.10;;;;;;;17.04;61.52;101090.22;5065867;28;20021;-76
2023/05/03 10:43:30;;;;;;;0.70;0.10;;;;;;;17.06;58.55;101082.97;5044563;28;20101;-75
2023/05/03 10:46:03;;;;;;;0.63;0.10;;;;;;;17.16;58.98;101080.97;5074756;28;20098;-75
2023/05/03 10:48:30;;;;;;;1.27;0.10;;;;;;;17.24;59.92;101086.19;5053369;28;20032;-75
2023/05/03 10:50:57;;;;;;;1.20;0.10;;;;;;;17.31;60.22;101081.88;5053531;28;20032;-76
2023/05/03 10:53:38;;;;;;;7.30;0.30;;;;;;;17.39;58.73;101089.75;5070687;28;20093;-75
2023/05/03 10:56:06;;;;;;;0.57;0.10;;;;;;;17.38;59.46;101085.47;5068214;28;20098;-75
2023/05/03 10:58:41;;;;;;;0.20;0.00;;;;;;;17.35;58.86;101088.44;5072130;28;20039;-74
2023/05/03 11:01:09;;;;;;;0.43;0.10;;;;;;;17.35;60.97;101083.19;5071981;28;20033;-74
2023/05/03 11:04:10;;;;;;;1.40;0.10;;;;;;;17.30;58.09;101087.31;5064841;28;20509;-75
2023/05/03 11:06:39;;;;;;;0.40;0.10;;;;;;;17.23;61.92;101089.81;5072263;28;20040;-75
2023/05/03 11:09:07;;;;;;;0.38;0.20;;;;;;;17.14;61.92;101085.59;5069844;28;20033;-76
2023/05/03 11:11:39;;;;;;;1.85;0.20;;;;;;;17.04;64.42;101087.59;5072689;28;20032;-76
2023/05/03 11:14:04;;;;;;;0.35;0.10;;;;;;;16.91;66.90;101086.34;5077851;28;20111;-76
2023/05/03 11:16:30;;;;;;;0.25;0.10;;;;;;;16.89;67.50;101090.97;5082153;28;20106;-76
2023/05/03 11:18:56;;;;;;;5.45;0.10;;;;;;;16.92;68.79;101088.00;5055913;28;20029;-76
2023/05/03 11:21:22;;;;;;;2.63;0.10;;;;;;;16.90;70.06;101087.34;5076137;28;20033;-77
2023/05/03 11:23:47;;;;;;;0.85;0.20;;;;;;;16.85;73.56;101092.31;5080957;28;20032;-78
2023/05/03 11:26:13;;;;;;;0.38;0.10;;;;;;;16.80;72.79;101089.34;5080644;28;20060;-76